Time;durP1;ratioP1;P1;durP2;ratioP2;P2;SDS_P1;SDS_P2;PMS_P1;PMS_P2;Temp;Humidity;BMP_temperature;BMP_pressure;BME280_temperature;BME280_humidity;BME280_pressure;Samples;Min_cycle;Max_cycle;Signal;HPM_P1;HPM_P2
2022/11/06 00:00:21;;;;;;;4.37;3.67;;;;;;;;;;4911274;29;20215;-61
2022/11/06 00:02:48;;;;;;;5.30;4.03;;;;;;;;;;4911777;29;20672;-61
2022/11/06 00:08:01;;;;;;;3.80;3.17;;;;;;;;;;4911394;29;20268;-61
2022/11/06 00:10:30;;;;;;;7.73;3.83;;;;;;;;;;4911427;29;20234;-62
2022/11/06 00:12:57;;;;;;;5.20;3.80;;;;;;;;;;4911435;29;20204;-62
2022/11/06 00:15:24;;;;;;;10.37;4.63;;;;;;;;;;4911011;29;20229;-61
2022/11/06 00:17:51;;;;;;;4.83;3.73;;;;;;;;;;4914820;29;20303;-61
2022/11/06 00:20:19;;;;;;;5.10;3.97;;;;;;;;;;4914863;29;20220;-61
2022/11/06 00:22:46;;;;;;;4.00;3.70;;;;;;;;;;4915148;29;20231;-61
2022/11/06 00:25:14;;;;;;;4.47;3.67;;;;;;;;;;4914971;29;20691;-62
2022/11/06 00:27:42;;;;;;;6.83;4.17;;;;;;;;;;4914946;29;20215;-61
2022/11/06 00:30:11;;;;;;;6.83;4.37;;;;;;;;;;4914404;29;20327;-61
2022/11/06 00:32:38;;;;;;;4.63;3.60;;;;;;;;;;4915083;29;20676;-62
2022/11/06 00:35:06;;;;;;;4.53;3.47;;;;;;;;;;4914510;29;20228;-61
2022/11/06 00:37:34;;;;;;;6.70;3.87;;;;;;;;;;4915047;29;20604;-62
2022/11/06 00:40:01;;;;;;;8.63;3.97;;;;;;;;;;4914117;29;20644;-61
2022/11/06 00:42:29;;;;;;;4.43;3.80;;;;;;;;;;4915272;29;20216;-61
2022/11/06 00:44:56;;;;;;;5.83;4.10;;;;;;;;;;4915894;29;20212;-61
2022/11/06 00:47:23;;;;;;;5.10;3.90;;;;;;;;;;4914896;29;20212;-60
2022/11/06 00:49:51;;;;;;;5.20;3.80;;;;;;;;;;4914885;29;20205;-61
2022/11/06 00:52:18;;;;;;;4.40;3.73;;;;;;;;;;4906928;29;20205;-61
2022/11/06 00:54:45;;;;;;;4.60;4.13;;;;;;;;;;4914248;29;20236;-61
2022/11/06 00:57:12;;;;;;;4.97;3.67;;;;;;;;;;4905199;29;20212;-61
2022/11/06 00:59:40;;;;;;;8.50;3.40;;;;;;;;;;4905148;29;20215;-60
2022/11/06 01:02:07;;;;;;;6.17;3.80;;;;;;;;;;4914208;29;20209;-61
2022/11/06 01:04:34;;;;;;;4.77;3.53;;;;;;;;;;4910305;29;20200;-61
2022/11/06 01:07:02;;;;;;;4.67;3.67;;;;;;;;;;4904996;29;20592;-61
2022/11/06 01:09:29;;;;;;;4.43;3.90;;;;;;;;;;4909001;29;20228;-62
2022/11/06 01:11:57;;;;;;;8.30;3.90;;;;;;;;;;4910928;29;20216;-61
2022/11/06 01:14:24;;;;;;;7.07;4.67;;;;;;;;;;4914556;29;20236;-62
2022/11/06 01:16:53;;;;;;;5.77;3.83;;;;;;;;;;4912158;29;20209;-61
2022/11/06 01:19:21;;;;;;;7.63;4.43;;;;;;;;;;4911878;29;20209;-61
2022/11/06 01:21:49;;;;;;;8.03;4.07;;;;;;;;;;4914806;29;20236;-61
2022/11/06 01:24:17;;;;;;;5.80;4.53;;;;;;;;;;4904898;29;20200;-61
2022/11/06 01:26:44;;;;;;;9.80;4.97;;;;;;;;;;4905815;29;20228;-61
2022/11/06 01:29:12;;;;;;;6.63;4.00;;;;;;;;;;4908762;29;20683;-61
2022/11/06 01:31:39;;;;;;;5.80;4.53;;;;;;;;;;4904680;29;20572;-61
2022/11/06 01:34:08;;;;;;;5.93;4.30;;;;;;;;;;4912618;29;20228;-62
2022/11/06 01:36:35;;;;;;;6.73;4.37;;;;;;;;;;4911707;29;20212;-61
2022/11/06 01:39:04;;;;;;;6.90;5.00;;;;;;;;;;4914307;29;20583;-61
2022/11/06 01:41:32;;;;;;;9.07;4.73;;;;;;;;;;4914511;29;20208;-61
2022/11/06 01:44:01;;;;;;;6.90;5.13;;;;;;;;;;4913465;29;20675;-61
2022/11/06 01:46:29;;;;;;;8.40;4.23;;;;;;;;;;4914276;29;20214;-61
2022/11/06 01:48:57;;;;;;;7.60;4.43;;;;;;;;;;4914410;29;20305;-61
2022/11/06 01:51:27;;;;;;;6.67;4.67;;;;;;;;;;4914137;29;20668;-61
2022/11/06 01:53:54;;;;;;;6.03;4.30;;;;;;;;;;4905396;29;20233;-61
2022/11/06 01:56:23;;;;;;;7.23;4.53;;;;;;;;;;4910252;29;20208;-61
2022/11/06 01:58:51;;;;;;;7.43;4.67;;;;;;;;;;4913779;29;20354;-61
2022/11/06 02:01:18;;;;;;;5.90;3.93;;;;;;;;;;4907260;29;20219;-61
2022/11/06 02:03:50;;;;;;;11.37;4.03;;;;;;;;;;4907175;29;20901;-61
2022/11/06 02:06:18;;;;;;;8.43;4.43;;;;;;;;;;4912840;29;20205;-60
2022/11/06 02:08:46;;;;;;;4.23;3.83;;;;;;;;;;4909158;29;20292;-61
2022/11/06 02:11:13;;;;;;;6.87;3.73;;;;;;;;;;4908198;29;20607;-61
2022/11/06 02:13:45;;;;;;;7.23;4.07;;;;;;;;;;4904797;29;20205;-61
2022/11/06 02:16:16;;;;;;;6.20;3.90;;;;;;;;;;4904034;29;20201;-61
2022/11/06 02:18:49;;;;;;;8.43;4.03;;;;;;;;;;4910513;29;20208;-61
2022/11/06 02:21:31;;;;;;;5.10;3.83;;;;;;;;;;4906475;29;20295;-61
2022/11/06 02:24:14;;;;;;;7.60;3.83;;;;;;;;;;4905511;29;20204;-61
2022/11/06 02:27:02;;;;;;;6.47;3.87;;;;;;;;;;4913305;29;20247;-61
2022/11/06 02:29:33;;;;;;;4.27;3.60;;;;;;;;;;4909381;29;20244;-61
2022/11/06 02:32:03;;;;;;;6.03;3.70;;;;;;;;;;4908495;29;20251;-61
2022/11/06 02:34:31;;;;;;;4.17;3.60;;;;;;;;;;4910597;29;20328;-61
2022/11/06 02:37:00;;;;;;;7.20;4.23;;;;;;;;;;4906700;29;20256;-61
2022/11/06 02:39:28;;;;;;;5.53;4.07;;;;;;;;;;4903317;29;20215;-61
2022/11/06 02:41:59;;;;;;;7.50;3.93;;;;;;;;;;4911685;29;20243;-63
2022/11/06 02:44:27;;;;;;;5.47;3.57;;;;;;;;;;4904833;29;20293;-61
2022/11/06 02:46:56;;;;;;;7.87;4.30;;;;;;;;;;4912693;29;20299;-62
2022/11/06 02:49:27;;;;;;;3.83;3.40;;;;;;;;;;4908938;29;20624;-61
2022/11/06 02:51:56;;;;;;;4.47;4.07;;;;;;;;;;4905093;29;20691;-61
2022/11/06 02:54:25;;;;;;;8.70;4.63;;;;;;;;;;4905378;29;20244;-61
2022/11/06 02:56:53;;;;;;;7.60;3.80;;;;;;;;;;4912392;29;20212;-62
2022/11/06 02:59:22;;;;;;;8.63;4.13;;;;;;;;;;4903268;29;20244;-61
2022/11/06 03:01:51;;;;;;;4.97;4.10;;;;;;;;;;4904387;29;20219;-61
2022/11/06 03:04:22;;;;;;;5.63;3.97;;;;;;;;;;4908152;29;20205;-61
2022/11/06 03:06:53;;;;;;;7.00;4.27;;;;;;;;;;4905239;29;20241;-61
2022/11/06 03:09:24;;;;;;;6.10;4.00;;;;;;;;;;4908360;29;20213;-61
2022/11/06 03:11:54;;;;;;;5.93;4.20;;;;;;;;;;4912817;29;20216;-61
2022/11/06 03:14:23;;;;;;;6.53;4.10;;;;;;;;;;4912590;29;20228;-61
2022/11/06 03:16:53;;;;;;;8.33;4.67;;;;;;;;;;4912809;29;20209;-61
2022/11/06 03:19:24;;;;;;;5.80;3.97;;;;;;;;;;4904060;29;20208;-62
2022/11/06 03:21:57;;;;;;;4.30;3.87;;;;;;;;;;4904459;29;20204;-62
2022/11/06 03:24:28;;;;;;;6.40;4.37;;;;;;;;;;4913236;29;20275;-61
2022/11/06 03:26:56;;;;;;;4.87;4.40;;;;;;;;;;4912087;29;20662;-61
2022/11/06 03:29:26;;;;;;;10.90;4.90;;;;;;;;;;4912877;29;20204;-61
2022/11/06 03:31:55;;;;;;;6.63;4.17;;;;;;;;;;4912611;29;20679;-61
2022/11/06 03:34:29;;;;;;;6.37;4.70;;;;;;;;;;4912915;29;20229;-61
2022/11/06 03:37:00;;;;;;;3.90;3.50;;;;;;;;;;4912749;29;20216;-61
2022/11/06 03:39:29;;;;;;;4.20;3.80;;;;;;;;;;4912814;29;20212;-61
2022/11/06 03:41:59;;;;;;;6.13;3.57;;;;;;;;;;4912563;29;20212;-61
2022/11/06 03:44:28;;;;;;;9.60;4.57;;;;;;;;;;4912368;29;20212;-61
2022/11/06 03:46:58;;;;;;;6.33;4.80;;;;;;;;;;4911213;29;20209;-61
2022/11/06 03:49:29;;;;;;;6.60;3.77;;;;;;;;;;4911397;29;20216;-61
2022/11/06 03:51:57;;;;;;;9.97;4.10;;;;;;;;;;4914709;29;20216;-61
2022/11/06 03:54:27;;;;;;;6.33;3.70;;;;;;;;;;4916797;29;20228;-61
2022/11/06 03:56:57;;;;;;;8.10;4.80;;;;;;;;;;4919159;29;20215;-61
2022/11/06 03:59:28;;;;;;;12.10;4.70;;;;;;;;;;4917679;29;20640;-61
2022/11/06 04:01:55;;;;;;;13.27;4.10;;;;;;;;;;4919051;29;20219;-61
2022/11/06 04:04:25;;;;;;;5.17;3.43;;;;;;;;;;4918593;29;20217;-61
2022/11/06 04:06:55;;;;;;;9.13;4.47;;;;;;;;;;4917598;29;20212;-61
2022/11/06 04:14:58;;;;;;;7.30;3.37;;;;;;;;;;4918554;29;20778;-62
2022/11/06 04:17:28;;;;;;;13.37;4.23;;;;;;;;;;4918508;29;20248;-61
2022/11/06 04:19:58;;;;;;;12.17;4.13;;;;;;;;;;4918507;29;20219;-61
2022/11/06 04:22:33;;;;;;;5.10;3.87;;;;;;;;;;4918622;29;20673;-62
2022/11/06 04:27:55;;;;;;;5.03;3.90;;;;;;;;;;4918496;29;20218;-61
2022/11/06 04:30:22;;;;;;;5.07;3.57;;;;;;;;;;4908183;29;20205;-61
2022/11/06 04:32:54;;;;;;;6.00;3.60;;;;;;;;;;4899810;29;20232;-60
2022/11/06 04:35:27;;;;;;;7.67;3.67;;;;;;;;;;4917672;29;20224;-61
2022/11/06 04:37:58;;;;;;;8.73;3.77;;;;;;;;;;4918862;29;20223;-61
2022/11/06 04:40:27;;;;;;;3.63;3.30;;;;;;;;;;4918295;29;20560;-61
2022/11/06 04:42:56;;;;;;;4.93;3.33;;;;;;;;;;4918426;29;20216;-61
2022/11/06 04:45:26;;;;;;;4.53;3.47;;;;;;;;;;4918512;29;20698;-61
2022/11/06 04:47:53;;;;;;;7.13;4.20;;;;;;;;;;4918319;29;20215;-61
2022/11/06 04:50:22;;;;;;;5.00;3.63;;;;;;;;;;4918338;29;20579;-60
2022/11/06 04:52:50;;;;;;;7.37;4.20;;;;;;;;;;4918336;29;20215;-61
2022/11/06 04:55:20;;;;;;;6.13;3.93;;;;;;;;;;4918269;29;20242;-61
2022/11/06 04:57:47;;;;;;;6.80;4.03;;;;;;;;;;4918242;29;20232;-61
2022/11/06 05:00:16;;;;;;;5.40;3.57;;;;;;;;;;4918467;29;20251;-61
2022/11/06 05:02:43;;;;;;;5.53;3.27;;;;;;;;;;4915709;29;20207;-61
2022/11/06 05:05:10;;;;;;;6.40;4.07;;;;;;;;;;4914974;29;20216;-60
2022/11/06 05:07:37;;;;;;;6.63;3.83;;;;;;;;;;4915083;29;20213;-61
2022/11/06 05:10:04;;;;;;;6.13;3.57;;;;;;;;;;4915333;29;20205;-60
2022/11/06 05:12:33;;;;;;;5.97;3.57;;;;;;;;;;4915081;29;20234;-61
2022/11/06 05:15:00;;;;;;;6.10;4.27;;;;;;;;;;4915287;29;20234;-61
2022/11/06 05:17:27;;;;;;;7.53;3.80;;;;;;;;;;4914938;29;20207;-61
2022/11/06 05:19:54;;;;;;;5.83;4.83;;;;;;;;;;4915003;29;20773;-61
2022/11/06 05:25:06;;;;;;;7.10;4.20;;;;;;;;;;4915078;29;20727;-61
2022/11/06 05:27:34;;;;;;;16.27;3.97;;;;;;;;;;4914814;29;20216;-61
2022/11/06 05:30:02;;;;;;;7.20;3.63;;;;;;;;;;4914982;29;20215;-62
2022/11/06 05:32:29;;;;;;;7.73;4.00;;;;;;;;;;4910649;29;20294;-61
2022/11/06 05:34:56;;;;;;;14.10;4.63;;;;;;;;;;4913816;29;20207;-61
2022/11/06 05:37:23;;;;;;;8.90;4.63;;;;;;;;;;4912810;29;20208;-60
2022/11/06 05:39:50;;;;;;;9.53;4.77;;;;;;;;;;4915152;29;20219;-60
2022/11/06 05:42:17;;;;;;;8.93;4.83;;;;;;;;;;4914356;29;20315;-62
2022/11/06 05:44:46;;;;;;;7.53;5.07;;;;;;;;;;4914672;29;20211;-62
2022/11/06 05:47:13;;;;;;;12.90;5.17;;;;;;;;;;4914349;29;20231;-62
2022/11/06 05:49:40;;;;;;;9.33;5.07;;;;;;;;;;4914887;29;20223;-62
2022/11/06 05:52:07;;;;;;;10.23;5.97;;;;;;;;;;4914511;29;20321;-61
2022/11/06 05:54:34;;;;;;;10.17;5.70;;;;;;;;;;4914581;29;20254;-61
2022/11/06 05:57:01;;;;;;;14.90;6.57;;;;;;;;;;4914446;29;20714;-61
2022/11/06 05:59:28;;;;;;;12.53;6.90;;;;;;;;;;4914094;29;20246;-61
2022/11/06 06:01:58;;;;;;;9.43;5.83;;;;;;;;;;4914500;29;20219;-60
2022/11/06 06:04:25;;;;;;;10.30;5.90;;;;;;;;;;4910404;29;20321;-62
2022/11/06 06:06:52;;;;;;;14.43;6.40;;;;;;;;;;4914334;29;20218;-61
2022/11/06 06:09:19;;;;;;;11.13;5.93;;;;;;;;;;4914041;29;20216;-62
2022/11/06 06:11:46;;;;;;;13.07;6.63;;;;;;;;;;4912595;29;20349;-61
2022/11/06 06:14:13;;;;;;;11.17;6.80;;;;;;;;;;4913711;29;20216;-61
2022/11/06 06:16:40;;;;;;;9.80;5.57;;;;;;;;;;4913792;29;20231;-61
2022/11/06 06:19:09;;;;;;;13.43;6.83;;;;;;;;;;4904060;29;20209;-61
2022/11/06 06:21:36;;;;;;;10.63;6.17;;;;;;;;;;4907876;29;20205;-61
2022/11/06 06:24:03;;;;;;;10.77;6.13;;;;;;;;;;4914282;29;20243;-61
2022/11/06 06:26:38;;;;;;;10.53;6.40;;;;;;;;;;4914256;29;20200;-62
2022/11/06 06:29:05;;;;;;;13.93;6.90;;;;;;;;;;4911582;29;20219;-61
2022/11/06 06:31:32;;;;;;;10.70;6.10;;;;;;;;;;4913093;29;20556;-61
2022/11/06 06:33:59;;;;;;;12.07;6.40;;;;;;;;;;4913003;29;20212;-61
2022/11/06 06:36:27;;;;;;;10.77;6.13;;;;;;;;;;4913026;29;20230;-63
2022/11/06 06:38:55;;;;;;;9.77;5.57;;;;;;;;;;4912970;29;20899;-62
2022/11/06 06:41:22;;;;;;;9.50;5.47;;;;;;;;;;4913031;29;20227;-62
2022/11/06 06:43:49;;;;;;;6.10;4.50;;;;;;;;;;4912965;29;20219;-61
2022/11/06 06:46:16;;;;;;;8.83;5.37;;;;;;;;;;4912535;29;20212;-61
2022/11/06 06:48:43;;;;;;;9.63;5.60;;;;;;;;;;4904435;29;20261;-60
2022/11/06 06:51:10;;;;;;;17.87;5.60;;;;;;;;;;4912534;29;20223;-61
2022/11/06 06:53:39;;;;;;;9.80;5.37;;;;;;;;;;4912850;29;20220;-61
2022/11/06 06:56:06;;;;;;;11.40;6.17;;;;;;;;;;4912424;29;20255;-62
2022/11/06 06:58:34;;;;;;;9.90;5.40;;;;;;;;;;4912827;29;20246;-62
2022/11/06 07:01:02;;;;;;;8.27;5.10;;;;;;;;;;4912775;29;20216;-63
2022/11/06 07:03:29;;;;;;;9.20;4.83;;;;;;;;;;4912889;29;20245;-62
2022/11/06 07:05:57;;;;;;;7.13;4.90;;;;;;;;;;4902844;29;20209;-61
2022/11/06 07:08:24;;;;;;;6.93;4.30;;;;;;;;;;4909751;29;20218;-60
2022/11/06 07:10:53;;;;;;;6.83;4.97;;;;;;;;;;4912402;29;20216;-61
2022/11/06 07:13:20;;;;;;;7.37;5.53;;;;;;;;;;4912733;29;20212;-60
2022/11/06 07:15:47;;;;;;;9.23;5.43;;;;;;;;;;4905680;29;20232;-61
2022/11/06 07:18:14;;;;;;;10.53;5.20;;;;;;;;;;4903330;29;20220;-60
2022/11/06 07:20:41;;;;;;;9.63;5.43;;;;;;;;;;4905701;29;20227;-60
2022/11/06 07:23:08;;;;;;;10.23;4.47;;;;;;;;;;4911847;29;20209;-61
2022/11/06 07:25:36;;;;;;;8.97;5.40;;;;;;;;;;4907583;29;20203;-60
2022/11/06 07:28:05;;;;;;;8.27;5.63;;;;;;;;;;4910155;29;20716;-60
2022/11/06 07:30:33;;;;;;;7.77;5.07;;;;;;;;;;4911001;29;20235;-61
2022/11/06 07:33:02;;;;;;;11.83;5.60;;;;;;;;;;4908822;29;20220;-61
2022/11/06 07:35:29;;;;;;;9.20;5.30;;;;;;;;;;4909806;29;20212;-60
2022/11/06 07:37:56;;;;;;;7.70;4.83;;;;;;;;;;4911633;29;20200;-61
2022/11/06 07:40:24;;;;;;;11.20;5.93;;;;;;;;;;4904025;29;20216;-61
2022/11/06 07:42:51;;;;;;;13.27;4.90;;;;;;;;;;4911398;29;20238;-60
2022/11/06 07:45:19;;;;;;;8.33;5.33;;;;;;;;;;4908897;29;20215;-61
2022/11/06 07:47:46;;;;;;;10.80;5.63;;;;;;;;;;4907569;29;20222;-61
2022/11/06 07:50:16;;;;;;;6.57;4.70;;;;;;;;;;4910764;29;20204;-60
2022/11/06 07:52:43;;;;;;;8.00;5.00;;;;;;;;;;4908950;29;20276;-61
2022/11/06 07:55:10;;;;;;;8.17;5.40;;;;;;;;;;4909725;29;20235;-61
2022/11/06 07:57:37;;;;;;;9.43;5.47;;;;;;;;;;4907230;29;20240;-61
2022/11/06 08:00:05;;;;;;;11.73;5.87;;;;;;;;;;4907397;29;20287;-61
2022/11/06 08:02:34;;;;;;;17.13;6.07;;;;;;;;;;4902280;29;20212;-61
2022/11/06 08:05:01;;;;;;;12.10;6.23;;;;;;;;;;4904212;29;20587;-61
2022/11/06 08:07:28;;;;;;;10.93;5.73;;;;;;;;;;4907662;29;20223;-61
2022/11/06 08:09:55;;;;;;;11.67;5.93;;;;;;;;;;4901500;29;20212;-60
2022/11/06 08:12:22;;;;;;;11.13;5.57;;;;;;;;;;4909597;29;20213;-62
2022/11/06 08:14:49;;;;;;;11.70;5.83;;;;;;;;;;4909252;29;20216;-64
2022/11/06 08:17:16;;;;;;;9.50;5.17;;;;;;;;;;4905708;29;20610;-60
2022/11/06 08:19:45;;;;;;;9.77;6.23;;;;;;;;;;4900295;29;20213;-61
2022/11/06 08:22:12;;;;;;;13.50;6.20;;;;;;;;;;4907456;29;20303;-60
2022/11/06 08:24:39;;;;;;;13.20;5.97;;;;;;;;;;4909469;29;20216;-60
2022/11/06 08:27:06;;;;;;;14.93;7.47;;;;;;;;;;4907267;29;20235;-60
2022/11/06 08:29:33;;;;;;;14.07;7.40;;;;;;;;;;4901666;29;20210;-60
2022/11/06 08:32:00;;;;;;;15.17;6.47;;;;;;;;;;4905204;29;20221;-61
2022/11/06 08:34:27;;;;;;;11.27;6.33;;;;;;;;;;4906400;29;20897;-62
2022/11/06 08:36:56;;;;;;;10.70;6.27;;;;;;;;;;4903817;29;20221;-63
2022/11/06 08:39:23;;;;;;;9.57;5.73;;;;;;;;;;4909133;29;20208;-62
2022/11/06 08:41:50;;;;;;;11.63;6.53;;;;;;;;;;4910828;29;20599;-62
2022/11/06 08:44:17;;;;;;;14.53;6.73;;;;;;;;;;4904871;29;20318;-61
2022/11/06 08:46:44;;;;;;;8.27;5.57;;;;;;;;;;4907455;29;20204;-62
2022/11/06 08:49:11;;;;;;;13.37;6.57;;;;;;;;;;4908969;29;20211;-61
2022/11/06 08:51:38;;;;;;;11.33;6.10;;;;;;;;;;4909538;29;20207;-62
2022/11/06 08:54:07;;;;;;;9.83;5.93;;;;;;;;;;4913107;29;20239;-61
2022/11/06 08:56:34;;;;;;;10.53;6.17;;;;;;;;;;4910277;29;20759;-62
2022/11/06 08:59:01;;;;;;;12.30;6.27;;;;;;;;;;4909318;29;20240;-63
2022/11/06 09:01:28;;;;;;;13.47;6.93;;;;;;;;;;4905352;29;20216;-61
2022/11/06 09:03:55;;;;;;;10.27;6.03;;;;;;;;;;4912982;29;20212;-61
2022/11/06 09:06:22;;;;;;;8.57;5.37;;;;;;;;;;4913648;29;20212;-61
2022/11/06 09:08:49;;;;;;;10.43;6.43;;;;;;;;;;4915092;29;20222;-61
2022/11/06 09:11:17;;;;;;;8.20;5.37;;;;;;;;;;4914980;29;20664;-61
2022/11/06 09:13:45;;;;;;;12.17;6.53;;;;;;;;;;4914735;29;20200;-61
2022/11/06 09:16:12;;;;;;;11.30;6.13;;;;;;;;;;4913687;29;20251;-61
2022/11/06 09:18:39;;;;;;;9.77;5.33;;;;;;;;;;4909694;29;20212;-61
2022/11/06 09:21:06;;;;;;;9.00;5.90;;;;;;;;;;4914396;29;20208;-62
2022/11/06 09:23:33;;;;;;;8.57;4.80;;;;;;;;;;4914385;29;20210;-61
2022/11/06 09:26:00;;;;;;;8.40;4.70;;;;;;;;;;4895958;29;20304;-64
2022/11/06 09:28:29;;;;;;;5.77;4.67;;;;;;;;;;4911366;29;20216;-61
2022/11/06 09:30:56;;;;;;;5.90;4.53;;;;;;;;;;4914940;29;20212;-62
2022/11/06 09:33:23;;;;;;;6.20;4.87;;;;;;;;;;4913194;29;20220;-61
2022/11/06 09:35:50;;;;;;;5.47;4.30;;;;;;;;;;4914825;29;20227;-61
2022/11/06 09:38:17;;;;;;;9.43;4.17;;;;;;;;;;4914530;29;20239;-61
2022/11/06 09:40:49;;;;;;;6.63;4.43;;;;;;;;;;4914554;29;20227;-61
2022/11/06 09:43:20;;;;;;;5.53;4.37;;;;;;;;;;4914602;29;20212;-61
2022/11/06 09:45:50;;;;;;;7.10;4.37;;;;;;;;;;4914701;29;20299;-61
2022/11/06 09:48:20;;;;;;;7.10;4.10;;;;;;;;;;4914011;29;20336;-61
2022/11/06 09:50:50;;;;;;;7.73;4.27;;;;;;;;;;4914433;29;20220;-61
2022/11/06 09:53:18;;;;;;;5.13;4.03;;;;;;;;;;4914436;29;20667;-61
2022/11/06 09:55:47;;;;;;;4.77;4.00;;;;;;;;;;4914169;29;20240;-62
2022/11/06 09:58:15;;;;;;;8.07;4.63;;;;;;;;;;4914152;29;20244;-62
2022/11/06 10:00:43;;;;;;;11.90;4.73;;;;;;;;;;4914223;29;20695;-61
2022/11/06 10:03:17;;;;;;;4.33;3.87;;;;;;;;;;4914101;29;20213;-61
2022/11/06 10:05:45;;;;;;;5.37;3.97;;;;;;;;;;4914032;29;20220;-61
2022/11/06 10:08:15;;;;;;;3.40;3.10;;;;;;;;;;4914071;29;20221;-60
2022/11/06 10:10:46;;;;;;;3.60;3.13;;;;;;;;;;4913988;29;20231;-61
2022/11/06 10:13:18;;;;;;;3.20;2.90;;;;;;;;;;4914134;29;20594;-61
2022/11/06 10:15:49;;;;;;;5.40;3.80;;;;;;;;;;4913932;29;20212;-61
2022/11/06 10:18:23;;;;;;;4.57;3.60;;;;;;;;;;4913570;29;20239;-61
2022/11/06 10:20:52;;;;;;;5.87;4.07;;;;;;;;;;4913778;29;20223;-61
2022/11/06 10:23:21;;;;;;;3.20;3.00;;;;;;;;;;4913638;29;20229;-60
2022/11/06 10:25:55;;;;;;;3.80;3.37;;;;;;;;;;4913627;29;20224;-61
2022/11/06 10:28:30;;;;;;;2.30;2.07;;;;;;;;;;4913649;29;20216;-61
2022/11/06 10:31:01;;;;;;;3.90;2.67;;;;;;;;;;4913417;29;20212;-61
2022/11/06 10:33:39;;;;;;;2.77;2.20;;;;;;;;;;4913578;29;20220;-62
2022/11/06 10:36:10;;;;;;;2.47;2.37;;;;;;;;;;4913636;29;20301;-62
2022/11/06 10:38:39;;;;;;;2.80;2.60;;;;;;;;;;4913728;29;20220;-62
2022/11/06 10:41:06;;;;;;;3.80;2.70;;;;;;;;;;4913386;29;20219;-61
2022/11/06 10:43:35;;;;;;;2.33;2.13;;;;;;;;;;4913674;29;20694;-60
2022/11/06 10:46:06;;;;;;;2.50;2.30;;;;;;;;;;4913257;29;20219;-61
2022/11/06 10:48:38;;;;;;;2.60;2.40;;;;;;;;;;4912558;29;20216;-62
2022/11/06 10:51:10;;;;;;;4.90;2.70;;;;;;;;;;4912498;29;20224;-60
2022/11/06 10:53:44;;;;;;;2.57;2.33;;;;;;;;;;4912456;29;20216;-62
2022/11/06 10:56:19;;;;;;;2.00;1.77;;;;;;;;;;4912701;29;20698;-62
2022/11/06 10:58:46;;;;;;;2.50;2.30;;;;;;;;;;4912488;29;20239;-62
2022/11/06 11:01:14;;;;;;;2.53;2.13;;;;;;;;;;4911592;29;20220;-61
2022/11/06 11:03:44;;;;;;;4.10;2.30;;;;;;;;;;4912230;29;20215;-60
2022/11/06 11:06:11;;;;;;;2.03;1.93;;;;;;;;;;4912299;29;20220;-61
2022/11/06 11:08:40;;;;;;;2.37;2.17;;;;;;;;;;4912278;29;20621;-61
2022/11/06 11:11:17;;;;;;;3.40;2.27;;;;;;;;;;4912061;29;20228;-60
2022/11/06 11:13:46;;;;;;;2.13;2.03;;;;;;;;;;4912263;29;20223;-60
2022/11/06 11:16:14;;;;;;;2.67;2.47;;;;;;;;;;4912074;29;20235;-60
2022/11/06 11:18:49;;;;;;;2.10;2.00;;;;;;;;;;4911331;29;20220;-60
2022/11/06 11:21:23;;;;;;;1.90;1.60;;;;;;;;;;4911504;29;20685;-61
2022/11/06 11:24:05;;;;;;;2.30;2.20;;;;;;;;;;4912254;29;20220;-62
2022/11/06 11:26:34;;;;;;;2.53;2.33;;;;;;;;;;4900773;29;20603;-61
2022/11/06 11:29:03;;;;;;;2.47;2.30;;;;;;;;;;4892904;29;20220;-61
2022/11/06 11:31:31;;;;;;;2.40;2.20;;;;;;;;;;4900490;29;20196;-61
2022/11/06 11:34:00;;;;;;;2.27;2.17;;;;;;;;;;4911400;29;20220;-62
2022/11/06 11:36:27;;;;;;;4.03;2.23;;;;;;;;;;4904792;29;20232;-60
2022/11/06 11:38:54;;;;;;;2.07;1.90;;;;;;;;;;4909286;29;20694;-61
2022/11/06 11:41:25;;;;;;;2.13;1.97;;;;;;;;;;4911447;29;20227;-61
2022/11/06 11:44:04;;;;;;;4.93;2.23;;;;;;;;;;4911220;29;20215;-61
2022/11/06 11:46:32;;;;;;;2.27;2.17;;;;;;;;;;4911745;29;20242;-61
2022/11/06 11:49:02;;;;;;;2.10;2.00;;;;;;;;;;4911718;29;20224;-61
2022/11/06 11:51:32;;;;;;;2.23;1.90;;;;;;;;;;4911918;29;20224;-62
2022/11/06 11:54:02;;;;;;;2.23;1.93;;;;;;;;;;4911582;29;20236;-61
2022/11/06 11:56:30;;;;;;;3.70;1.97;;;;;;;;;;4911494;29;20212;-62
2022/11/06 11:58:57;;;;;;;2.10;1.90;;;;;;;;;;4911398;29;20348;-62
2022/11/06 12:01:33;;;;;;;2.23;2.03;;;;;;;;;;4911635;29;20212;-61
2022/11/06 12:04:01;;;;;;;2.00;1.90;;;;;;;;;;4911495;29;20215;-62
2022/11/06 12:06:28;;;;;;;1.83;1.73;;;;;;;;;;4911453;29;20212;-62
2022/11/06 12:08:56;;;;;;;1.83;1.73;;;;;;;;;;4911407;29;20325;-62
2022/11/06 12:11:25;;;;;;;1.40;1.40;;;;;;;;;;4911399;29;20243;-62
2022/11/06 12:14:11;;;;;;;1.80;1.70;;;;;;;;;;4915275;29;20212;-62
2022/11/06 12:16:38;;;;;;;1.73;1.63;;;;;;;;;;4915252;29;20224;-60
2022/11/06 12:19:08;;;;;;;1.30;1.23;;;;;;;;;;4914768;29;20565;-60
2022/11/06 12:21:37;;;;;;;2.17;1.70;;;;;;;;;;4914974;29;20220;-61
2022/11/06 12:24:07;;;;;;;1.37;1.37;;;;;;;;;;4914818;29;20212;-61
2022/11/06 12:26:36;;;;;;;1.53;1.43;;;;;;;;;;4914706;29;20220;-61
2022/11/06 12:29:08;;;;;;;1.40;1.30;;;;;;;;;;4914782;29;20307;-61
2022/11/06 12:31:37;;;;;;;1.60;1.50;;;;;;;;;;4914627;29;20662;-61
2022/11/06 12:34:07;;;;;;;1.40;1.30;;;;;;;;;;4914564;29;20223;-61
2022/11/06 12:36:39;;;;;;;2.10;1.90;;;;;;;;;;4914485;29;20734;-60
2022/11/06 12:39:12;;;;;;;2.80;2.07;;;;;;;;;;4914590;29;20239;-61
2022/11/06 12:41:41;;;;;;;2.33;2.20;;;;;;;;;;4914566;29;20216;-61
2022/11/06 12:44:10;;;;;;;2.10;2.00;;;;;;;;;;4914519;29;20636;-60
2022/11/06 12:46:40;;;;;;;1.70;1.70;;;;;;;;;;4913168;29;20204;-60
2022/11/06 12:49:27;;;;;;;4.07;1.60;;;;;;;;;;4914673;29;20307;-60
2022/11/06 12:52:03;;;;;;;2.60;1.60;;;;;;;;;;4913754;29;20204;-60
2022/11/06 12:54:38;;;;;;;2.03;1.73;;;;;;;;;;4912156;29;20251;-60
2022/11/06 12:57:10;;;;;;;2.43;1.93;;;;;;;;;;4914551;29;20225;-60
2022/11/06 12:59:42;;;;;;;1.80;1.70;;;;;;;;;;4914549;29;20208;-60
2022/11/06 13:02:18;;;;;;;3.33;1.23;;;;;;;;;;4914400;29;20212;-60
2022/11/06 13:04:50;;;;;;;3.13;2.00;;;;;;;;;;4914381;29;20212;-60
2022/11/06 13:07:32;;;;;;;3.20;2.30;;;;;;;;;;4913464;29;20212;-60
2022/11/06 13:10:23;;;;;;;1.70;1.70;;;;;;;;;;4911959;29;20212;-60
2022/11/06 13:12:59;;;;;;;2.20;2.07;;;;;;;;;;4890864;29;20217;-60
2022/11/06 13:15:31;;;;;;;2.30;2.20;;;;;;;;;;4914300;29;20208;-60
2022/11/06 13:18:02;;;;;;;2.87;2.60;;;;;;;;;;4914189;29;20235;-61
2022/11/06 13:20:32;;;;;;;3.07;2.90;;;;;;;;;;4910521;29;20695;-60
2022/11/06 13:23:02;;;;;;;3.90;2.73;;;;;;;;;;4913348;29;20208;-60
2022/11/06 13:25:33;;;;;;;1.93;1.83;;;;;;;;;;4913091;29;20212;-60
2022/11/06 13:28:06;;;;;;;2.90;2.17;;;;;;;;;;4895438;29;20213;-60
2022/11/06 13:30:35;;;;;;;1.80;1.80;;;;;;;;;;4896751;29;20224;-60
2022/11/06 13:33:05;;;;;;;1.67;1.47;;;;;;;;;;4913166;29;20208;-60
2022/11/06 13:35:33;;;;;;;1.87;1.63;;;;;;;;;;4913951;29;20227;-60
2022/11/06 13:38:01;;;;;;;1.63;1.53;;;;;;;;;;4913600;29;20225;-60
2022/11/06 13:40:31;;;;;;;3.17;2.07;;;;;;;;;;4913807;29;20217;-60
2022/11/06 13:43:01;;;;;;;4.47;2.00;;;;;;;;;;4913324;29;20212;-62
2022/11/06 13:45:32;;;;;;;2.00;1.80;;;;;;;;;;4913922;29;20687;-61
2022/11/06 13:48:10;;;;;;;2.17;1.93;;;;;;;;;;4911768;29;20212;-60
2022/11/06 13:50:40;;;;;;;2.43;2.17;;;;;;;;;;4913758;29;20216;-60
2022/11/06 13:53:14;;;;;;;1.90;1.80;;;;;;;;;;4913822;29;20212;-60
2022/11/06 13:55:49;;;;;;;2.67;2.37;;;;;;;;;;4913129;29;20703;-60
2022/11/06 13:58:25;;;;;;;2.73;2.53;;;;;;;;;;4913209;29;20251;-61
2022/11/06 14:00:58;;;;;;;2.73;2.40;;;;;;;;;;4912155;29;20901;-61
2022/11/06 14:03:34;;;;;;;2.17;2.00;;;;;;;;;;4913038;29;20679;-60
2022/11/06 14:06:02;;;;;;;2.70;2.30;;;;;;;;;;4913299;29;20216;-60
2022/11/06 14:08:31;;;;;;;2.13;2.03;;;;;;;;;;4911215;29;20204;-60
2022/11/06 14:11:00;;;;;;;2.97;2.53;;;;;;;;;;4904644;29;20232;-63
2022/11/06 14:13:29;;;;;;;1.90;1.80;;;;;;;;;;4913343;29;20204;-60
2022/11/06 14:16:01;;;;;;;1.80;1.70;;;;;;;;;;4912952;29;20220;-61
2022/11/06 14:18:28;;;;;;;1.90;1.80;;;;;;;;;;4912898;29;20235;-61
2022/11/06 14:21:10;;;;;;;2.07;1.93;;;;;;;;;;4909295;29;20219;-61
2022/11/06 14:23:49;;;;;;;2.30;2.10;;;;;;;;;;4914762;29;20295;-63
2022/11/06 14:26:36;;;;;;;2.13;2.03;;;;;;;;;;4913233;29;20307;-61
2022/11/06 14:29:18;;;;;;;2.23;2.10;;;;;;;;;;4913130;29;20208;-63
2022/11/06 14:32:05;;;;;;;2.53;2.33;;;;;;;;;;4913423;29;20208;-61
2022/11/06 14:34:33;;;;;;;2.83;2.57;;;;;;;;;;4905043;29;20218;-62
2022/11/06 14:37:00;;;;;;;1.97;1.87;;;;;;;;;;4910128;29;20208;-62
2022/11/06 14:39:48;;;;;;;2.00;1.90;;;;;;;;;;4913277;29;20239;-61
2022/11/06 14:42:17;;;;;;;2.50;2.30;;;;;;;;;;4911247;29;20231;-62
2022/11/06 14:44:47;;;;;;;1.73;1.63;;;;;;;;;;4911452;29;20235;-62
2022/11/06 14:47:29;;;;;;;1.57;1.47;;;;;;;;;;4907294;29;20217;-61
2022/11/06 14:49:57;;;;;;;2.07;1.97;;;;;;;;;;4905654;29;20238;-60
2022/11/06 14:52:25;;;;;;;2.30;2.00;;;;;;;;;;4911951;29;20208;-62
2022/11/06 14:54:55;;;;;;;3.07;2.20;;;;;;;;;;4912581;29;20237;-60
2022/11/06 14:57:35;;;;;;;2.77;2.40;;;;;;;;;;4912573;29;20255;-61
2022/11/06 15:00:02;;;;;;;3.60;3.13;;;;;;;;;;4912106;29;20208;-61
2022/11/06 15:02:31;;;;;;;3.30;2.20;;;;;;;;;;4912309;29;20236;-61
2022/11/06 15:05:00;;;;;;;3.77;2.00;;;;;;;;;;4912741;29;20212;-60
2022/11/06 15:07:32;;;;;;;2.93;2.30;;;;;;;;;;4912513;29;20223;-63